Time;durP1;ratioP1;P1;durP2;ratioP2;P2;SDS_P1;SDS_P2;PMS_P1;PMS_P2;Temp;Humidity;BMP_temperature;BMP_pressure;BME280_temperature;BME280_humidity;BME280_pressure;Samples;Min_cycle;Max_cycle;Signal;HPM_P1;HPM_P2
2023/01/26 00:00:29;;;;;;;272.25;71.10;;;5.10;99.90;;;;;;5050563;28;20063;-62
2023/01/26 00:02:55;;;;;;;178.50;59.92;;;6.80;99.90;;;;;;5052904;28;20426;-61
2023/01/26 00:05:20;;;;;;;210.15;64.53;;;5.90;99.90;;;;;;5057040;28;20060;-62
2023/01/26 00:07:46;;;;;;;264.65;69.07;;;6.50;99.90;;;;;;5053109;28;20094;-62
2023/01/26 00:10:11;;;;;;;295.92;74.22;;;4.60;99.90;;;;;;5052844;28;20083;-62
2023/01/26 00:12:37;;;;;;;400.60;81.50;;;5.00;99.90;;;;;;5050819;28;20045;-63
2023/01/26 00:15:03;;;;;;;335.45;79.10;;;4.60;99.90;;;;;;5062827;28;20040;-62
2023/01/26 00:17:29;;;;;;;336.35;77.80;;;5.90;99.90;;;;;;5053097;28;20037;-63
2023/01/26 00:19:56;;;;;;;336.02;78.07;;;6.90;99.90;;;;;;5041190;28;20044;-62
2023/01/26 00:22:23;;;;;;;304.08;75.07;;;5.10;99.90;;;;;;5052331;28;20056;-63
2023/01/26 00:24:48;;;;;;;262.42;71.30;;;5.70;99.90;;;;;;5054085;28;20036;-62
2023/01/26 00:27:14;;;;;;;371.55;78.32;;;6.10;99.90;;;;;;5054617;28;20037;-61
2023/01/26 00:29:39;;;;;;;352.25;81.20;;;4.70;99.90;;;;;;5053949;28;20116;-62
2023/01/26 00:32:05;;;;;;;337.77;77.65;;;5.40;99.90;;;;;;5064427;28;20044;-62
2023/01/26 00:34:30;;;;;;;262.35;72.28;;;5.80;99.90;;;;;;5052761;28;20041;-62
2023/01/26 00:36:56;;;;;;;285.73;72.93;;;5.00;99.90;;;;;;5052322;28;20064;-62
2023/01/26 00:39:22;;;;;;;306.90;75.68;;;5.10;99.90;;;;;;5033884;28;20474;-62
2023/01/26 00:42:05;;;;;;;1382.15;147.80;;;7.00;99.90;;;;;;5057647;28;20528;-62
2023/01/26 00:44:31;;;;;;;250.20;64.47;;;7.10;99.90;;;;;;5042362;28;20458;-62
2023/01/26 00:46:57;;;;;;;318.90;73.80;;;4.90;99.90;;;;;;5051806;28;20068;-62
2023/01/26 00:49:23;;;;;;;235.75;68.05;;;7.10;99.90;;;;;;5075829;28;20093;-62
2023/01/26 00:51:48;;;;;;;257.23;69.47;;;4.80;99.90;;;;;;5066305;28;20041;-62
2023/01/26 00:54:14;;;;;;;309.55;73.07;;;5.50;99.90;;;;;;5050095;28;20044;-62
2023/01/26 00:56:39;;;;;;;288.83;70.90;;;5.90;99.90;;;;;;5052577;28;20052;-62
2023/01/26 00:59:05;;;;;;;345.35;74.40;;;4.90;99.90;;;;;;5034357;28;20037;-62
2023/01/26 01:01:31;;;;;;;378.92;74.40;;;7.10;99.90;;;;;;5051953;28;20041;-61
2023/01/26 01:03:57;;;;;;;358.65;75.60;;;7.00;99.90;;;;;;5050597;28;20045;-62
2023/01/26 01:06:23;;;;;;;249.15;66.85;;;7.00;99.90;;;;;;5051905;28;20036;-61
2023/01/26 01:08:49;;;;;;;257.30;66.07;;;7.10;99.90;;;;;;5071403;28;20379;-62
2023/01/26 01:11:14;;;;;;;318.02;71.15;;;6.20;99.90;;;;;;5063422;28;20041;-63
2023/01/26 01:13:40;;;;;;;321.42;70.10;;;6.70;99.90;;;;;;5067750;28;20546;-63
2023/01/26 01:16:11;;;;;;;436.73;80.18;;;7.20;99.90;;;;;;5056346;28;20123;-63
2023/01/26 01:18:38;;;;;;;356.10;71.70;;;6.80;99.90;;;;;;5070421;28;20083;-62
2023/01/26 01:21:11;;;;;;;357.48;73.28;;;6.10;99.90;;;;;;5047300;28;20041;-62
2023/01/26 01:23:37;;;;;;;1678.38;219.10;;;7.00;99.90;;;;;;5051342;28;20095;-62
2023/01/26 01:26:04;;;;;;;310.95;71.93;;;5.10;99.90;;;;;;5052122;28;20101;-62
2023/01/26 01:28:30;;;;;;;433.35;80.63;;;6.20;99.90;;;;;;5052290;28;20410;-62
2023/01/26 01:30:56;;;;;;;464.48;79.30;;;5.30;99.90;;;;;;5062508;28;20048;-62
2023/01/26 01:33:22;;;;;;;495.48;82.25;;;5.20;99.90;;;;;;5050539;28;20052;-63
2023/01/26 01:35:56;;;;;;;236.27;64.05;;;5.50;99.90;;;;;;5052030;28;20088;-62
2023/01/26 01:38:21;;;;;;;305.30;68.75;;;5.10;99.90;;;;;;5049911;28;20173;-62
2023/01/26 01:40:47;;;;;;;347.17;70.25;;;5.10;99.90;;;;;;5050578;28;20115;-61
2023/01/26 01:43:12;;;;;;;398.15;74.95;;;6.40;99.90;;;;;;5049454;28;20040;-62
2023/01/26 01:45:48;;;;;;;424.55;77.13;;;5.30;99.90;;;;;;5035900;28;20048;-64
2023/01/26 01:48:19;;;;;;;470.58;79.50;;;5.70;99.90;;;;;;5049272;28;20067;-62
2023/01/26 01:50:45;;;;;;;402.45;74.82;;;5.70;99.90;;;;;;5057673;28;20052;-62
2023/01/26 01:53:17;;;;;;;442.40;79.05;;;6.30;99.90;;;;;;5047873;28;20513;-62
2023/01/26 01:55:44;;;;;;;426.42;74.82;;;5.40;99.90;;;;;;5051351;28;20040;-62
2023/01/26 01:58:10;;;;;;;465.33;79.50;;;5.60;99.90;;;;;;5051043;28;20505;-63
2023/01/26 02:00:35;;;;;;;453.75;78.32;;;5.30;99.90;;;;;;5060298;28;20055;-62
2023/01/26 02:03:11;;;;;;;1582.05;167.05;;;5.30;99.90;;;;;;5049717;28;20124;-63
2023/01/26 02:06:02;;;;;;;425.60;76.80;;;5.40;99.90;;;;;;5049343;28;20044;-62
2023/01/26 02:08:35;;;;;;;405.70;73.60;;;6.30;99.90;;;;;;5042330;28;20387;-62
2023/01/26 02:11:06;;;;;;;331.10;72.63;;;7.80;99.90;;;;;;5051067;28;20879;-61
2023/01/26 02:13:33;;;;;;;322.85;70.32;;;5.40;99.90;;;;;;5049386;28;20502;-62
2023/01/26 02:15:59;;;;;;;410.67;72.85;;;6.00;99.90;;;;;;5041761;28;20052;-62
2023/01/26 02:18:25;;;;;;;443.92;76.03;;;5.70;99.90;;;;;;5055029;28;20069;-62
2023/01/26 02:21:02;;;;;;;437.05;76.25;;;6.10;99.90;;;;;;5051298;28;20126;-62
2023/01/26 02:23:49;;;;;;;419.10;76.22;;;5.50;99.90;;;;;;5049966;28;20044;-62
2023/01/26 02:26:18;;;;;;;268.05;64.30;;;7.40;99.90;;;;;;5079447;28;20098;-62
2023/01/26 02:28:46;;;;;;;290.52;66.85;;;7.90;99.90;;;;;;5050217;28;20517;-62
2023/01/26 02:31:12;;;;;;;330.42;67.65;;;5.60;99.90;;;;;;5042027;28;20056;-63
2023/01/26 02:33:39;;;;;;;285.27;65.40;;;5.40;99.90;;;;;;5049317;28;20090;-63
2023/01/26 02:36:06;;;;;;;234.75;59.17;;;7.90;99.90;;;;;;5039706;28;20038;-62
2023/01/26 02:38:43;;;;;;;315.58;63.78;;;5.60;99.90;;;;;;5049974;28;20131;-62
2023/01/26 02:42:37;;;;;;;211.55;55.33;;;5.80;99.90;;;;;;5082252;28;20491;-62
2023/01/26 02:44:06;;;;;;;256.23;57.05;;;6.50;99.90;;;;;;5042954;28;20391;-62
2023/01/26 02:46:31;;;;;;;265.75;56.05;;;7.80;99.90;;;;;;5049217;28;20045;-63
2023/01/26 02:51:41;;;;;;;183.88;42.33;;;6.00;99.90;;;;;;5051170;28;20041;-62
2023/01/26 02:54:06;;;;;;;200.27;44.78;;;8.30;99.90;;;;;;5049738;28;20103;-62
2023/01/26 02:56:32;;;;;;;193.43;40.78;;;6.60;99.90;;;;;;5048709;28;20502;-62
2023/01/26 02:58:58;;;;;;;214.60;43.65;;;7.10;99.90;;;;;;5049517;28;20048;-63
2023/01/26 03:01:23;;;;;;;160.20;34.00;;;6.80;99.90;;;;;;5061545;28;20045;-62
2023/01/26 03:03:49;;;;;;;134.15;27.88;;;6.90;99.90;;;;;;5050296;28;20124;-62
2023/01/26 03:06:14;;;;;;;172.70;28.55;;;7.50;99.90;;;;;;5051743;28;20045;-61
2023/01/26 03:08:40;;;;;;;109.10;19.27;;;7.40;99.90;;;;;;5050203;28;20068;-62
2023/01/26 03:11:07;;;;;;;80.80;12.73;;;7.50;99.90;;;;;;5049860;28;20151;-62
2023/01/26 03:13:33;;;;;;;55.35;9.48;;;7.90;99.90;;;;;;5064501;28;20049;-62
2023/01/26 03:16:05;;;;;;;61.28;7.75;;;10.50;99.90;;;;;;5052590;28;20037;-63
2023/01/26 03:29:31;;;;;;;62.15;8.95;;;10.70;99.90;;;;;;5054053;28;20103;-62
2023/01/26 03:31:58;;;;;;;65.15;8.75;;;10.60;99.90;;;;;;5054624;28;20041;-63
2023/01/26 03:34:24;;;;;;;57.63;7.82;;;8.10;99.90;;;;;;5068499;28;20471;-63
2023/01/26 03:36:50;;;;;;;58.45;7.63;;;8.10;99.90;;;;;;5061978;28;20093;-62
2023/01/26 03:58:30;;;;;;;58.50;8.43;;;10.90;99.90;;;;;;5035498;28;20120;-63
2023/01/26 04:00:56;;;;;;;56.50;7.53;;;8.20;99.90;;;;;;5046341;28;20104;-62
2023/01/26 04:08:50;;;;;;;50.65;7.22;;;10.30;99.90;;;;;;5053170;28;20059;-62
2023/01/26 04:11:16;;;;;;;47.88;7.35;;;8.40;99.90;;;;;;5053160;28;20510;-62
2023/01/26 04:21:54;;;;;;;59.63;8.50;;;8.10;99.90;;;;;;5045492;28;22438;-63
2023/01/26 04:24:21;;;;;;;48.35;7.82;;;10.20;99.90;;;;;;5082795;28;20682;-62
2023/01/26 04:26:47;;;;;;;39.00;6.32;;;8.30;99.90;;;;;;5057765;28;20447;-62
2023/01/26 04:29:14;;;;;;;48.22;7.68;;;8.10;99.90;;;;;;5066310;28;20091;-62
2023/01/26 04:31:41;;;;;;;48.20;7.53;;;7.80;99.90;;;;;;5052498;28;20513;-62
2023/01/26 04:34:10;;;;;;;51.13;6.65;;;9.20;99.90;;;;;;5053804;28;20513;-62
2023/01/26 04:36:36;;;;;;;59.97;7.78;;;10.00;99.90;;;;;;5065714;28;20475;-62
2023/01/26 04:39:02;;;;;;;68.35;8.23;;;10.00;99.90;;;;;;5051671;28;20132;-62
2023/01/26 04:41:29;;;;;;;50.15;8.10;;;7.70;99.90;;;;;;5068522;28;20029;-62
2023/01/26 04:43:55;;;;;;;60.42;8.32;;;7.70;99.90;;;;;;5052254;28;20438;-62
2023/01/26 04:46:20;;;;;;;58.50;7.13;;;7.70;99.90;;;;;;5054409;28;20057;-62
2023/01/26 04:48:46;;;;;;;66.20;9.00;;;7.60;99.90;;;;;;5071488;28;20085;-62
2023/01/26 04:51:15;;;;;;;58.47;7.47;;;9.90;99.90;;;;;;5065856;28;20075;-62
2023/01/26 04:53:40;;;;;;;53.53;7.50;;;8.70;99.90;;;;;;5050496;28;20073;-62
2023/01/26 04:56:10;;;;;;;72.30;7.53;;;8.80;99.90;;;;;;5068277;28;20431;-63
2023/01/26 04:58:36;;;;;;;59.78;8.75;;;7.70;99.90;;;;;;5067440;28;20094;-61
2023/01/26 05:01:01;;;;;;;52.35;7.38;;;9.50;99.90;;;;;;5052662;28;20036;-61
2023/01/26 05:03:27;;;;;;;51.30;8.20;;;7.80;99.90;;;;;;5049085;28;20072;-62
2023/01/26 05:05:53;;;;;;;59.30;7.78;;;9.90;99.90;;;;;;5052406;28;20060;-63
2023/01/26 05:08:21;;;;;;;58.90;8.93;;;8.50;99.90;;;;;;5053576;28;20057;-62
2023/01/26 05:10:46;;;;;;;57.60;8.65;;;7.40;99.90;;;;;;5052457;28;20656;-62
2023/01/26 05:13:12;;;;;;;60.60;8.18;;;7.40;99.90;;;;;;5052575;28;20069;-63
2023/01/26 05:15:39;;;;;;;58.67;9.45;;;7.50;99.90;;;;;;5051649;28;20048;-61
2023/01/26 05:18:05;;;;;;;57.30;8.23;;;9.30;99.90;;;;;;5057279;28;20410;-62
2023/01/26 05:20:31;;;;;;;73.93;8.95;;;10.00;99.90;;;;;;5032581;28;20056;-62
2023/01/26 05:22:57;;;;;;;55.40;8.38;;;10.00;99.90;;;;;;5052255;28;20052;-62
2023/01/26 05:25:23;;;;;;;52.28;7.47;;;8.90;99.90;;;;;;5048547;28;20426;-62
2023/01/26 05:27:48;;;;;;;59.60;8.23;;;9.30;99.90;;;;;;5062133;28;20558;-62
2023/01/26 05:30:15;;;;;;;63.03;9.40;;;10.20;99.90;;;;;;5071945;28;20036;-62
2023/01/26 05:32:41;;;;;;;57.78;7.50;;;9.90;99.90;;;;;;5050138;28;20128;-61
2023/01/26 05:35:07;;;;;;;62.65;8.27;;;10.00;99.90;;;;;;5052001;28;20615;-62
2023/01/26 05:37:33;;;;;;;51.35;7.45;;;9.90;99.90;;;;;;5058230;28;20032;-63
2023/01/26 05:39:58;;;;;;;61.03;9.77;;;9.80;99.90;;;;;;5068073;28;20178;-62
2023/01/26 05:42:25;;;;;;;58.60;8.13;;;10.00;99.90;;;;;;5052370;28;20127;-62
2023/01/26 05:44:50;;;;;;;52.95;7.72;;;10.00;99.90;;;;;;5040047;28;20053;-62
2023/01/26 05:47:16;;;;;;;60.78;8.95;;;9.90;99.90;;;;;;5042060;28;20118;-62
2023/01/26 05:49:42;;;;;;;57.13;7.60;;;7.80;99.90;;;;;;5071826;28;20040;-62
2023/01/26 05:52:17;;;;;;;71.75;9.13;;;7.30;99.90;;;;;;5071582;28;20110;-62
2023/01/26 05:54:43;;;;;;;48.67;7.97;;;7.50;99.90;;;;;;5050377;28;20036;-62
2023/01/26 05:57:09;;;;;;;58.15;9.05;;;8.10;99.90;;;;;;5060913;28;20032;-62
2023/01/26 05:59:34;;;;;;;57.53;8.50;;;9.60;99.90;;;;;;5051552;28;20478;-62
2023/01/26 06:02:00;;;;;;;58.55;9.05;;;9.70;99.90;;;;;;5051934;28;20052;-62
2023/01/26 06:04:26;;;;;;;55.53;7.43;;;7.20;99.90;;;;;;5049154;28;20124;-61
2023/01/26 06:06:53;;;;;;;64.25;8.50;;;7.80;99.90;;;;;;5051744;28;20060;-62
2023/01/26 06:09:19;;;;;;;52.33;6.97;;;9.20;99.90;;;;;;5066590;28;20169;-63
2023/01/26 06:11:45;;;;;;;48.45;6.97;;;9.50;99.90;;;;;;5072206;28;20116;-62
2023/01/26 06:14:11;;;;;;;48.92;7.50;;;9.60;99.90;;;;;;5048256;28;20064;-62
2023/01/26 06:16:37;;;;;;;41.42;6.80;;;7.60;99.90;;;;;;5049103;28;20087;-62
2023/01/26 06:19:03;;;;;;;48.95;7.22;;;8.50;99.90;;;;;;5066247;28;20068;-62
2023/01/26 06:21:29;;;;;;;46.75;7.25;;;7.90;99.90;;;;;;5060452;28;20041;-62
2023/01/26 06:23:55;;;;;;;40.00;6.50;;;9.00;99.90;;;;;;5049171;28;20509;-62
2023/01/26 06:26:20;;;;;;;42.97;7.97;;;8.00;99.90;;;;;;5046608;28;20045;-62
2023/01/26 06:28:46;;;;;;;44.45;7.18;;;8.30;99.90;;;;;;5052425;28;20036;-62
2023/01/26 06:31:11;;;;;;;54.17;8.27;;;8.10;99.90;;;;;;5064159;28;20084;-63
2023/01/26 06:33:38;;;;;;;48.75;6.85;;;10.00;99.90;;;;;;5047824;28;20041;-62
2023/01/26 06:36:07;;;;;;;43.70;7.20;;;9.90;99.90;;;;;;5047165;28;20033;-62
2023/01/26 06:38:33;;;;;;;61.13;8.57;;;10.00;99.90;;;;;;5050142;28;20135;-62
2023/01/26 06:41:02;;;;;;;45.55;7.22;;;9.10;99.90;;;;;;5049133;28;20128;-63
2023/01/26 06:43:29;;;;;;;53.55;7.45;;;9.70;99.90;;;;;;5041493;28;20034;-63
2023/01/26 06:45:56;;;;;;;51.03;7.47;;;9.60;99.90;;;;;;5030078;28;20285;-62
2023/01/26 06:48:23;;;;;;;52.42;6.75;;;8.00;99.90;;;;;;5046280;28;20044;-62
2023/01/26 06:50:50;;;;;;;54.67;7.35;;;8.50;99.90;;;;;;5052452;28;20029;-62
2023/01/26 06:53:31;;;;;;;61.70;7.43;;;9.50;99.90;;;;;;5048750;28;20083;-64
2023/01/26 06:55:57;;;;;;;55.05;6.45;;;7.60;99.90;;;;;;5050668;28;20483;-62
2023/01/26 06:58:22;;;;;;;42.38;6.38;;;7.60;99.90;;;;;;5067713;28;20066;-62
2023/01/26 07:00:48;;;;;;;46.45;6.93;;;8.00;99.90;;;;;;5057245;28;20067;-62
2023/01/26 07:03:14;;;;;;;52.03;7.68;;;9.30;99.90;;;;;;5053766;28;20049;-62
2023/01/26 07:05:39;;;;;;;54.90;8.15;;;8.70;99.90;;;;;;5054783;28;20120;-63
2023/01/26 07:08:07;;;;;;;46.75;7.03;;;9.60;99.90;;;;;;5054628;28;20068;-61
2023/01/26 07:10:35;;;;;;;50.83;7.18;;;9.60;99.90;;;;;;5067466;28;20032;-61
2023/01/26 07:13:03;;;;;;;50.08;6.95;;;7.90;99.90;;;;;;5060409;28;20060;-63
2023/01/26 07:15:28;;;;;;;52.00;7.20;;;9.20;99.90;;;;;;5054300;28;20045;-62
2023/01/26 07:17:55;;;;;;;54.08;7.72;;;9.50;99.90;;;;;;5058743;28;20043;-61
2023/01/26 07:20:21;;;;;;;58.70;7.53;;;8.50;99.90;;;;;;5072919;28;20040;-63
2023/01/26 07:22:47;;;;;;;47.00;6.85;;;8.70;99.90;;;;;;5057668;28;20036;-63
2023/01/26 07:25:12;;;;;;;54.78;8.52;;;9.80;99.90;;;;;;5050419;28;20064;-60
2023/01/26 07:27:38;;;;;;;58.88;7.13;;;8.60;99.90;;;;;;5052413;28;20037;-60
2023/01/26 07:30:04;;;;;;;60.72;8.30;;;9.30;99.90;;;;;;5051724;28;20442;-62
2023/01/26 07:32:30;;;;;;;57.60;7.78;;;9.20;99.90;;;;;;5047057;28;20041;-63
2023/01/26 07:34:56;;;;;;;49.97;7.55;;;9.30;99.90;;;;;;5048121;28;20033;-61
2023/01/26 07:37:21;;;;;;;63.92;8.82;;;9.70;99.90;;;;;;5052608;28;20039;-62
2023/01/26 07:39:47;;;;;;;51.92;7.65;;;9.40;99.90;;;;;;5039493;28;20042;-61
2023/01/26 07:42:13;;;;;;;59.50;7.70;;;8.00;99.90;;;;;;5043503;28;20060;-61
2023/01/26 07:44:39;;;;;;;47.10;6.97;;;9.40;99.90;;;;;;5050262;28;20060;-63
2023/01/26 07:47:04;;;;;;;52.20;8.00;;;8.70;99.90;;;;;;5041994;28;20052;-62
2023/01/26 07:49:30;;;;;;;53.38;7.45;;;8.80;99.90;;;;;;5038810;28;20032;-63
2023/01/26 07:51:56;;;;;;;50.17;7.43;;;8.40;99.90;;;;;;5049860;28;20044;-61
2023/01/26 07:54:22;;;;;;;41.40;7.03;;;9.20;99.90;;;;;;5042478;28;20069;-63
2023/01/26 07:56:53;;;;;;;43.97;6.78;;;10.10;99.90;;;;;;5049234;28;20029;-61
2023/01/26 07:59:19;;;;;;;46.65;7.40;;;10.00;99.90;;;;;;5051279;28;20037;-61
2023/01/26 08:01:45;;;;;;;56.35;7.80;;;8.80;99.90;;;;;;5050488;28;20041;-61
2023/01/26 08:04:11;;;;;;;42.60;7.07;;;9.40;99.90;;;;;;5047553;28;20052;-61
2023/01/26 08:06:36;;;;;;;44.78;6.55;;;8.40;99.90;;;;;;5049343;28;20037;-62
2023/01/26 08:09:02;;;;;;;45.53;6.65;;;8.30;99.90;;;;;;5052025;28;20033;-62
2023/01/26 08:11:28;;;;;;;41.83;6.57;;;10.20;99.90;;;;;;5052653;28;20033;-61
2023/01/26 08:13:54;;;;;;;41.45;6.38;;;10.20;99.90;;;;;;5049984;28;20396;-61
2023/01/26 08:16:20;;;;;;;50.78;7.57;;;10.10;99.90;;;;;;5045456;28;20174;-61
2023/01/26 08:18:46;;;;;;;42.85;6.97;;;8.50;99.90;;;;;;5032384;28;20041;-61
2023/01/26 08:21:14;;;;;;;44.55;5.80;;;8.60;99.90;;;;;;5045792;28;20535;-61
2023/01/26 08:23:39;;;;;;;41.22;5.88;;;8.70;99.90;;;;;;5048531;28;20040;-62
2023/01/26 08:26:07;;;;;;;54.53;6.68;;;8.60;99.90;;;;;;5047237;28;20387;-61
2023/01/26 08:28:33;;;;;;;41.80;6.40;;;8.60;99.90;;;;;;5051740;28;20037;-63
2023/01/26 08:31:19;;;;;;;37.92;6.53;;;10.30;99.90;;;;;;5049567;28;20052;-63
2023/01/26 08:33:47;;;;;;;41.17;6.43;;;8.50;99.90;;;;;;5052186;28;20402;-63
2023/01/26 08:36:14;;;;;;;48.38;6.28;;;8.80;99.90;;;;;;5049483;28;20391;-61
2023/01/26 08:38:41;;;;;;;43.78;6.95;;;8.90;99.90;;;;;;5049565;28;20098;-63
2023/01/26 08:41:07;;;;;;;40.28;5.80;;;10.30;99.90;;;;;;5048983;28;20131;-62
2023/01/26 08:43:33;;;;;;;44.28;6.35;;;10.20;99.90;;;;;;5048866;28;20510;-62
2023/01/26 08:45:59;;;;;;;46.75;5.95;;;10.40;99.90;;;;;;5047983;28;20036;-62
2023/01/26 08:48:24;;;;;;;50.63;6.97;;;9.40;99.90;;;;;;5047837;28;20725;-61
2023/01/26 08:50:54;;;;;;;43.60;6.72;;;10.60;99.90;;;;;;5045615;28;20037;-61
2023/01/26 08:53:21;;;;;;;41.92;6.45;;;9.70;99.90;;;;;;5050168;28;20045;-62
2023/01/26 08:55:46;;;;;;;35.80;5.93;;;10.50;99.90;;;;;;5059064;28;20059;-64
2023/01/26 08:58:12;;;;;;;47.88;6.45;;;10.80;99.90;;;;;;5055550;28;20033;-62
2023/01/26 09:00:37;;;;;;;43.35;5.85;;;9.40;99.90;;;;;;5063679;28;20040;-62
2023/01/26 09:03:04;;;;;;;34.47;6.40;;;9.40;99.90;;;;;;5046387;28;20037;-61
2023/01/26 09:05:36;;;;;;;39.42;5.82;;;10.70;99.90;;;;;;5039851;28;20090;-62
2023/01/26 09:08:03;;;;;;;41.45;6.90;;;10.20;99.90;;;;;;5050497;28;20053;-62
2023/01/26 09:10:29;;;;;;;45.58;5.95;;;10.50;99.90;;;;;;5050470;28;20029;-62
2023/01/26 09:12:56;;;;;;;47.78;5.80;;;10.20;99.90;;;;;;5054720;28;20040;-62
2023/01/26 09:15:22;;;;;;;37.25;6.22;;;10.10;99.90;;;;;;5048244;28;20041;-62
2023/01/26 09:17:48;;;;;;;50.45;7.60;;;10.90;99.90;;;;;;5051257;28;20046;-62
2023/01/26 09:20:14;;;;;;;36.72;6.13;;;9.50;99.90;;;;;;5050165;28;20490;-64
2023/01/26 09:22:41;;;;;;;45.08;6.78;;;9.60;99.90;;;;;;5078877;28;20132;-62
2023/01/26 09:25:07;;;;;;;44.25;6.78;;;10.50;99.90;;;;;;5050422;28;20060;-64
2023/01/26 09:27:33;;;;;;;42.60;6.30;;;11.20;99.90;;;;;;5059343;28;20044;-61
2023/01/26 09:29:59;;;;;;;37.72;7.18;;;9.70;99.90;;;;;;5048726;28;20059;-62
2023/01/26 09:32:24;;;;;;;48.35;7.40;;;10.50;99.90;;;;;;5048546;28;20041;-63
2023/01/26 09:34:50;;;;;;;45.38;6.65;;;10.50;99.90;;;;;;5046272;28;20039;-62
2023/01/26 09:37:16;;;;;;;35.45;6.13;;;11.30;99.90;;;;;;5044910;28;20092;-63
2023/01/26 09:39:42;;;;;;;37.90;6.40;;;9.90;99.90;;;;;;5048990;28;20083;-62
2023/01/26 09:42:29;;;;;;;36.10;5.82;;;11.00;73.90;;;;;;5051329;28;20522;-62
2023/01/26 09:45:03;;;;;;;;;;;11.00;1.00;;;;;;5050199;28;20516;-61
2023/01/26 09:47:46;;;;;;;36.20;6.70;;;10.70;1.00;;;;;;5054824;28;19970;-62
2023/01/26 09:50:18;;;;;;;48.92;6.57;;;10.60;99.90;;;;;;5050984;28;20044;-63
2023/01/26 09:52:55;;;;;;;41.10;6.85;;;10.10;99.90;;;;;;5050117;28;20067;-61
2023/01/26 09:55:22;;;;;;;44.80;6.38;;;9.80;1.00;;;;;;5041450;28;20045;-63
2023/01/26 09:57:53;;;;;;;44.05;6.38;;;10.90;99.90;;;;;;5051626;28;20564;-62
2023/01/26 10:00:26;;;;;;;39.40;6.65;;;10.60;99.90;;;;;;5059190;28;20499;-62
2023/01/26 10:03:21;;;;;;;29.27;4.90;;;10.20;46.60;;;;;;5048890;28;20070;-63
2023/01/26 10:05:53;;;;;;;37.22;5.38;;;11.10;1.00;;;;;;5037090;28;20085;-63
2023/01/26 10:08:22;;;;;;;42.85;5.95;;;11.00;1.00;;;;;;5060440;28;20080;-62
2023/01/26 10:10:54;;;;;;;42.83;5.90;;;10.90;99.90;;;;;;5048281;28;20064;-62
2023/01/26 10:13:22;;;;;;;38.42;5.60;;;10.10;99.90;;;;;;5032080;28;20464;-63
2023/01/26 10:16:04;;;;;;;40.70;6.30;;;10.90;99.90;;;;;;5054021;28;20055;-62
2023/01/26 10:18:34;;;;;;;43.72;6.07;;;11.50;99.90;;;;;;5058080;28;20033;-62
2023/01/26 10:21:02;;;;;;;32.83;5.50;;;11.40;99.90;;;;;;5049537;28;20044;-62
2023/01/26 10:23:30;;;;;;;38.63;5.50;;;10.40;90.80;;;;;;5049629;28;20041;-62
2023/01/26 10:26:11;;;;;;;36.60;6.75;;;10.20;1.00;;;;;;5050156;28;20115;-61
2023/01/26 10:28:38;;;;;;;36.15;5.97;;;10.70;1.00;;;;;;5047568;28;20040;-62
2023/01/26 10:31:11;;;;;;;37.42;5.70;;;10.10;99.90;;;;;;5050322;28;20037;-62
2023/01/26 10:33:38;;;;;;;33.35;5.75;;;11.50;99.90;;;;;;5050570;28;20103;-62
2023/01/26 10:36:06;;;;;;;29.50;5.55;;;11.20;99.90;;;;;;5049444;28;20486;-64
2023/01/26 10:38:31;;;;;;;36.00;5.80;;;10.10;99.90;;;;;;5079495;28;20048;-62
2023/01/26 10:41:00;;;;;;;32.15;4.97;;;10.20;99.90;;;;;;5062006;28;20063;-62
2023/01/26 10:43:25;;;;;;;24.42;4.03;;;10.80;85.20;;;;;;5050707;28;20040;-63
2023/01/26 10:45:51;;;;;;;16.92;3.05;;;11.30;1.00;;;;;;5049687;28;20047;-63
2023/01/26 10:48:20;;;;;;;22.30;3.33;;;10.70;99.90;;;;;;5061411;28;20045;-62
2023/01/26 10:50:47;;;;;;;19.38;3.47;;;10.50;1.00;;;;;;5058700;28;20083;-62
2023/01/26 10:53:15;;;;;;;18.58;2.72;;;10.60;99.90;;;;;;5045755;28;20038;-62
2023/01/26 10:55:41;;;;;;;22.58;3.72;;;10.60;50.50;;;;;;5049125;28;20045;-62
2023/01/26 10:58:37;;;;;;;25.23;4.07;;;10.90;1.00;;;;;;5053527;28;20033;-62
2023/01/26 11:01:02;;;;;;;28.00;4.40;;;11.40;99.90;;;;;;5049192;28;20032;-62
2023/01/26 11:03:28;;;;;;;17.10;3.50;;;11.50;99.90;;;;;;5049036;28;20049;-64
2023/01/26 11:06:16;;;;;;;23.85;4.20;;;11.60;99.90;;;;;;5034922;28;20037;-63
2023/01/26 11:08:42;;;;;;;27.58;4.40;;;10.90;22.10;;;;;;5043185;28;20048;-62
2023/01/26 11:11:25;;;;;;;28.33;4.40;;;10.90;1.00;;;;;;5049192;28;20128;-63
2023/01/26 11:14:18;;;;;;;27.38;5.10;;;11.30;1.00;;;;;;5052129;28;20496;-62
2023/01/26 11:17:08;;;;;;;28.75;5.47;;;11.30;1.00;;;;;;5072091;28;20119;-61
2023/01/26 11:19:54;;;;;;;30.15;4.70;;;11.90;1.00;;;;;;5045666;28;20041;-63
2023/01/26 11:22:31;;;;;;;29.70;5.03;;;11.90;1.00;;;;;;5042792;28;20045;-63
2023/01/26 11:25:22;;;;;;;29.90;5.25;;;11.60;1.00;;;;;;5042269;28;20049;-62
2023/01/26 11:28:10;;;;;;;31.50;4.30;;;11.80;1.00;;;;;;5048794;28;20412;-62
2023/01/26 11:30:38;;;;;;;24.90;4.45;;;11.30;99.90;;;;;;5044120;28;20057;-62
2023/01/26 11:33:32;;;;;;;27.27;4.03;;;11.60;99.90;;;;;;5043267;28;20067;-61
2023/01/26 11:36:10;;;;;;;29.85;4.50;;;11.80;99.90;;;;;;5047748;28;20564;-62
2023/01/26 11:38:48;;;;;;;26.10;4.00;;;10.90;99.90;;;;;;5054642;28;20908;-63
2023/01/26 11:41:48;;;;;;;34.53;4.68;;;11.80;36.70;;;;;;5043106;28;20079;-61
2023/01/26 11:44:34;;;;;;;29.15;5.25;;;11.20;1.00;;;;;;5046555;28;20032;-62
2023/01/26 11:47:09;;;;;;;25.52;3.90;;;12.10;24.90;;;;;;5049460;28;20378;-62
2023/01/26 11:50:03;;;;;;;29.35;4.57;;;11.80;83.60;;;;;;5049383;28;20040;-62
2023/01/26 11:52:44;;;;;;;19.00;3.65;;;11.20;99.90;;;;;;5051268;28;20511;-62
2023/01/26 11:55:55;;;;;;;22.48;3.92;;;11.50;21.10;;;;;;5050481;28;20036;-62
2023/01/26 11:58:30;;;;;;;21.35;3.83;;;11.10;1.00;;;;;;5050342;28;20075;-62
2023/01/26 12:00:59;;;;;;;20.17;3.17;;;11.10;1.00;;;;;;5053978;28;20039;-63
2023/01/26 12:03:42;;;;;;;23.58;4.10;;;11.50;99.90;;;;;;5048939;28;20044;-62
2023/01/26 12:06:19;;;;;;;19.42;3.17;;;10.90;99.90;;;;;;5049223;28;20048;-62
2023/01/26 12:09:02;;;;;;;22.02;3.60;;;10.90;99.90;;;;;;5053870;28;20060;-62
2023/01/26 12:11:33;;;;;;;15.43;3.35;;;10.90;99.90;;;;;;5040177;28;20083;-62
2023/01/26 12:14:05;;;;;;;23.67;4.55;;;11.50;99.90;;;;;;5042129;28;20049;-62
2023/01/26 12:16:52;;;;;;;21.65;3.47;;;11.30;99.90;;;;;;5057167;28;20513;-63
2023/01/26 12:19:35;;;;;;;24.13;4.45;;;11.80;99.90;;;;;;5043006;28;20033;-62
2023/01/26 12:22:16;;;;;;;19.90;4.10;;;11.90;99.90;;;;;;5042461;28;20064;-64
2023/01/26 12:24:49;;;;;;;30.70;4.57;;;11.90;99.90;;;;;;5046373;28;20045;-62
2023/01/26 12:27:30;;;;;;;26.63;4.93;;;11.60;99.90;;;;;;5052507;28;20060;-62
2023/01/26 12:30:25;;;;;;;25.20;4.30;;;11.00;99.90;;;;;;5053031;28;20048;-62
2023/01/26 12:32:51;;;;;;;25.33;4.20;;;11.20;90.70;;;;;;5066596;28;20049;-62
2023/01/26 12:35:44;;;;;;;23.65;4.65;;;11.50;17.80;;;;;;5052924;28;20095;-62
2023/01/26 12:38:10;;;;;;;24.00;4.60;;;10.90;1.00;;;;;;4992915;28;20451;-63
2023/01/26 12:40:42;;;;;;;23.42;4.40;;;10.90;1.00;;;;;;5042603;28;20045;-62
2023/01/26 12:43:51;;;;;;;23.80;3.75;;;10.90;1.00;;;;;;5052476;28;20087;-62
2023/01/26 12:46:19;;;;;;;28.27;5.00;;;10.90;99.90;;;;;;5042281;28;20049;-62
2023/01/26 12:48:54;;;;;;;25.17;3.95;;;10.90;99.90;;;;;;5053420;28;20471;-62
2023/01/26 12:51:32;;;;;;;25.50;4.30;;;11.60;99.90;;;;;;5033535;28;20141;-62
2023/01/26 12:54:01;;;;;;;29.80;4.90;;;11.00;99.90;;;;;;5052088;28;20119;-62
2023/01/26 12:56:46;;;;;;;26.17;4.40;;;11.80;99.90;;;;;;5053169;28;20052;-62
2023/01/26 12:59:29;;;;;;;24.10;4.63;;;11.30;99.90;;;;;;5068411;28;20041;-62
2023/01/26 13:01:55;;;;;;;24.85;4.20;;;11.50;99.90;;;;;;5064281;28;20029;-63
2023/01/26 13:04:21;;;;;;;26.98;4.25;;;11.50;90.60;;;;;;5051577;28;20119;-64
2023/01/26 13:07:02;;;;;;;22.52;4.35;;;11.40;31.10;;;;;;5055780;28;20517;-63
2023/01/26 13:09:28;;;;;;;26.48;4.15;;;11.10;1.00;;;;;;5052859;28;20048;-63
2023/01/26 13:11:58;;;;;;;19.63;3.83;;;11.40;1.00;;;;;;5052640;28;20033;-63
2023/01/26 13:14:31;;;;;;;21.02;3.95;;;11.00;1.00;;;;;;5068049;28;20527;-60
2023/01/26 13:17:17;;;;;;;17.35;3.50;;;11.40;1.00;;;;;;5086824;28;20145;-61
2023/01/26 13:19:43;;;;;;;17.85;3.38;;;11.50;1.00;;;;;;5046927;28;20083;-62
2023/01/26 13:22:18;;;;;;;18.95;3.30;;;11.40;99.90;;;;;;5052743;28;20037;-61
2023/01/26 13:24:48;;;;;;;17.15;2.95;;;11.30;99.90;;;;;;5050720;28;20119;-62
2023/01/26 13:27:39;;;;;;;17.60;3.20;;;11.00;99.90;;;;;;5054165;28;20172;-60
2023/01/26 13:30:26;;;;;;;30.33;4.00;;;11.40;99.90;;;;;;5067105;28;20437;-61
2023/01/26 13:32:52;;;;;;;;;;;11.40;99.90;;;;;;5046085;28;20086;-60
2023/01/26 13:35:22;;;;;;;25.92;3.65;;;11.10;99.90;;;;;;5052080;28;19917;-60
2023/01/26 13:38:03;;;;;;;20.67;3.33;;;11.00;99.90;;;;;;5057231;28;20135;-62